createdAt,value
2022-09-11T00:01:52.894Z,0
2022-09-11T00:03:59.568Z,0
2022-09-11T00:06:05.343Z,0
2022-09-11T00:07:08.159Z,0
2022-09-11T00:09:13.918Z,0
2022-09-11T00:11:21.134Z,0
2022-09-11T00:13:26.626Z,0
2022-09-11T00:14:29.626Z,0
2022-09-11T00:16:34.354Z,0
2022-09-11T00:18:41.065Z,0
2022-09-11T00:20:46.988Z,0
2022-09-11T00:21:50.711Z,0
2022-09-11T00:23:55.812Z,0
2022-09-11T00:26:01.477Z,0
2022-09-11T00:28:07.992Z,0
2022-09-11T00:29:10.606Z,0
2022-09-11T00:31:17.099Z,0
2022-09-11T00:33:22.493Z,0
2022-09-11T00:35:28.761Z,0
2022-09-11T00:36:31.558Z,0
2022-09-11T00:38:37.100Z,0
2022-09-11T00:40:43.510Z,0
2022-09-11T00:42:50.541Z,0
2022-09-11T00:43:54.523Z,0
2022-09-11T00:46:01.395Z,0
2022-09-11T00:47:04.137Z,0
2022-09-11T00:48:06.734Z,0
2022-09-11T00:49:09.731Z,0
2022-09-11T00:51:15.782Z,0
2022-09-11T00:53:21.834Z,0
2022-09-11T00:54:25.255Z,0
2022-09-11T00:56:32.177Z,0
2022-09-11T00:58:38.932Z,0
2022-09-11T00:59:42.931Z,0
2022-09-11T01:01:49.205Z,0
2022-09-11T01:03:54.756Z,0
2022-09-11T01:06:00.886Z,0
2022-09-11T01:07:03.321Z,0
2022-09-11T01:09:09.661Z,0
2022-09-11T01:11:15.902Z,0
2022-09-11T01:12:18.504Z,0
2022-09-11T01:14:25.431Z,0
2022-09-11T01:16:32.353Z,0
2022-09-11T01:17:35.202Z,0
2022-09-11T01:19:40.855Z,0
2022-09-11T01:20:43.744Z,0
2022-09-11T01:22:48.588Z,0
2022-09-11T01:24:54.351Z,0
2022-09-11T01:25:57.218Z,0
2022-09-11T01:28:02.647Z,0
2022-09-11T01:29:06.338Z,0
2022-09-11T01:30:14.075Z,0
2022-09-11T01:31:17.811Z,0
2022-09-11T01:32:20.617Z,0
2022-09-11T01:33:24.071Z,0
2022-09-11T01:34:27.528Z,0
2022-09-11T01:35:29.577Z,0
2022-09-11T01:36:32.662Z,0
2022-09-11T01:37:35.818Z,0
2022-09-11T01:38:38.925Z,0
2022-09-11T01:40:45.700Z,0
2022-09-11T01:42:51.434Z,0
2022-09-11T01:43:54.864Z,0
2022-09-11T01:44:57.994Z,0
2022-09-11T01:46:01.581Z,0
2022-09-11T01:48:07.855Z,0
2022-09-11T01:49:10.991Z,0
2022-09-11T01:51:16.637Z,0
2022-09-11T01:52:19.347Z,0
2022-09-11T01:53:22.790Z,0
2022-09-11T01:54:25.849Z,0
2022-09-11T01:56:32.332Z,0
2022-09-11T01:57:35.172Z,0
2022-09-11T01:59:41.825Z,0
2022-09-11T02:01:48.726Z,0
2022-09-11T02:02:51.460Z,0
2022-09-11T02:04:57.771Z,0
2022-09-11T02:07:03.848Z,0
2022-09-11T02:08:06.639Z,0
2022-09-11T02:10:12.514Z,0
2022-09-11T02:12:17.613Z,0
2022-09-11T02:13:20.685Z,0
2022-09-11T02:15:26.712Z,0
2022-09-11T02:16:30.498Z,0
2022-09-11T02:18:37.725Z,0
2022-09-11T02:20:43.606Z,0
2022-09-11T02:22:49.542Z,0
2022-09-11T02:23:52.339Z,0
2022-09-11T02:25:58.875Z,0
2022-09-11T02:28:05.714Z,0
2022-09-11T02:29:08.155Z,0
2022-09-11T02:30:11.220Z,0
2022-09-11T02:31:14.471Z,0
2022-09-11T02:33:21.397Z,0
2022-09-11T02:34:24.471Z,0
2022-09-11T02:35:27.264Z,0
2022-09-11T02:36:29.861Z,0
2022-09-11T02:38:36.181Z,0
2022-09-11T02:39:39.276Z,0
2022-09-11T02:41:45.013Z,0
2022-09-11T02:42:48.763Z,0
2022-09-11T02:44:54.083Z,0
2022-09-11T02:46:59.550Z,0
2022-09-11T02:48:02.730Z,0
2022-09-11T02:50:10.201Z,0
2022-09-11T02:51:13.195Z,0
2022-09-11T02:53:18.866Z,0
2022-09-11T02:54:21.460Z,0
2022-09-11T02:56:26.936Z,0
2022-09-11T02:58:32.783Z,0
2022-09-11T02:59:36.054Z,0
2022-09-11T03:01:41.551Z,0
2022-09-11T03:03:49.106Z,0
2022-09-11T03:05:56.201Z,0
2022-09-11T03:06:59.275Z,0
2022-09-11T03:09:04.853Z,0
2022-09-11T03:11:10.887Z,0
2022-09-11T03:13:17.109Z,0
2022-09-11T03:14:19.916Z,0
2022-09-11T03:16:25.499Z,0
2022-09-11T03:18:31.371Z,0
2022-09-11T03:20:38.101Z,0
2022-09-11T03:21:41.163Z,0
2022-09-11T03:23:46.005Z,0
2022-09-11T03:25:51.118Z,0
2022-09-11T03:27:56.875Z,0
2022-09-11T03:28:59.750Z,0
2022-09-11T03:31:06.365Z,0
2022-09-11T03:33:12.143Z,0
2022-09-11T03:35:17.565Z,0
2022-09-11T03:36:21.084Z,0
2022-09-11T03:38:27.967Z,0
2022-09-11T03:40:34.295Z,0
2022-09-11T03:42:40.857Z,0
2022-09-11T03:43:44.137Z,0
2022-09-11T03:45:50.545Z,0
2022-09-11T03:47:57.156Z,0
2022-09-11T03:50:02.885Z,0
2022-09-11T03:51:06.418Z,0
2022-09-11T03:53:13.743Z,0
2022-09-11T03:55:19.897Z,0
2022-09-11T03:57:25.861Z,0
2022-09-11T03:58:28.573Z,0
2022-09-11T04:00:34.598Z,0
2022-09-11T04:02:39.714Z,0
2022-09-11T04:04:46.194Z,0
2022-09-11T04:05:48.987Z,0
2022-09-11T04:07:55.019Z,0
2022-09-11T04:10:00.700Z,0
2022-09-11T04:11:04.126Z,0
2022-09-11T04:12:07.197Z,0
2022-09-11T04:13:09.987Z,0
2022-09-11T04:15:16.553Z,0
2022-09-11T04:17:22.896Z,0
2022-09-11T04:18:25.880Z,0
2022-09-11T04:20:31.879Z,0
2022-09-11T04:22:37.236Z,0
2022-09-11T04:23:41.683Z,0
2022-09-11T04:24:44.588Z,0
2022-09-11T04:25:47.928Z,0
2022-09-11T04:27:53.788Z,0
2022-09-11T04:28:57.231Z,0
2022-09-11T04:29:59.747Z,0
2022-09-11T04:31:03.221Z,0
2022-09-11T04:33:09.340Z,0
2022-09-11T04:34:12.335Z,1
2022-09-11T04:35:15.465Z,1
2022-09-11T04:36:18.337Z,1
2022-09-11T04:38:25.070Z,1
2022-09-11T04:40:32.482Z,2
2022-09-11T04:41:35.929Z,2
2022-09-11T04:43:43.214Z,2
2022-09-11T04:45:49.146Z,2
2022-09-11T04:47:54.556Z,3
2022-09-11T04:48:57.723Z,3
2022-09-11T04:51:03.044Z,3
2022-09-11T04:53:09.349Z,5
2022-09-11T04:55:16.995Z,6
2022-09-11T04:56:19.862Z,6
2022-09-11T04:58:25.240Z,6
2022-09-11T05:00:30.882Z,5
2022-09-11T05:01:33.444Z,5
2022-09-11T05:02:36.823Z,6
2022-09-11T05:03:40.300Z,7
2022-09-11T05:05:47.289Z,9
2022-09-11T05:06:50.101Z,10
2022-09-11T05:07:53.171Z,9
2022-09-11T05:08:55.972Z,9
2022-09-11T05:11:03.582Z,11
2022-09-11T05:12:06.655Z,13
2022-09-11T05:13:09.812Z,13
2022-09-11T05:14:12.912Z,13
2022-09-11T05:16:18.283Z,10
2022-09-11T05:18:24.514Z,11
2022-09-11T05:19:26.665Z,12
2022-09-11T05:21:32.857Z,15
2022-09-11T05:23:38.946Z,18
2022-09-11T05:25:45.833Z,16
2022-09-11T05:26:49.350Z,14
2022-09-11T05:28:55.193Z,10
2022-09-11T05:31:00.845Z,9
2022-09-11T05:33:06.878Z,8
2022-09-11T05:34:09.748Z,9
2022-09-11T05:36:16.369Z,15
2022-09-11T05:38:23.029Z,20
2022-09-11T05:40:28.460Z,18
2022-09-11T05:41:32.224Z,14
2022-09-11T05:43:38.944Z,15
2022-09-11T05:45:46.175Z,10
2022-09-11T05:47:57.824Z,15
2022-09-11T05:49:00.623Z,20
2022-09-11T05:51:06.521Z,24
2022-09-11T05:53:13.124Z,18
2022-09-11T05:55:18.512Z,17
2022-09-11T05:56:21.577Z,19
2022-09-11T05:58:28.584Z,24
2022-09-11T06:00:34.788Z,21
2022-09-11T06:02:40.842Z,18
2022-09-11T06:03:44.667Z,21
2022-09-11T06:05:49.726Z,24
2022-09-11T06:07:56.390Z,23
2022-09-11T06:10:05.281Z,22
2022-09-11T06:11:08.129Z,22
2022-09-11T06:13:14.512Z,24
2022-09-11T06:15:48.296Z,26
2022-09-11T06:17:55.211Z,32
2022-09-11T06:20:00.762Z,35
2022-09-11T06:21:03.941Z,32
2022-09-11T06:23:11.243Z,33
2022-09-11T06:25:17.303Z,25
2022-09-11T06:27:22.888Z,17
2022-09-11T06:28:26.092Z,21
2022-09-11T06:30:33.612Z,33
2022-09-11T06:32:39.399Z,38
2022-09-11T06:34:45.201Z,50
2022-09-11T06:35:47.984Z,49
2022-09-11T06:37:56.399Z,31
2022-09-11T06:40:02.317Z,27
2022-09-11T06:41:05.143Z,30
2022-09-11T06:42:08.770Z,29
2022-09-11T06:43:12.197Z,32
2022-09-11T06:45:19.486Z,29
2022-09-11T06:46:22.379Z,32
2022-09-11T06:47:26.095Z,33
2022-09-11T06:48:29.551Z,33
2022-09-11T06:50:38.463Z,56
2022-09-11T06:52:44.747Z,92
2022-09-11T06:53:47.344Z,102
2022-09-11T06:55:53.643Z,87
2022-09-11T06:57:59.942Z,133
2022-09-11T07:00:05.532Z,123
2022-09-11T07:01:10.192Z,80
2022-09-11T07:03:16.902Z,56
2022-09-11T07:05:23.165Z,47
2022-09-11T07:06:27.161Z,38
2022-09-11T07:07:29.864Z,42
2022-09-11T07:08:32.772Z,42
2022-09-11T07:10:38.995Z,53
2022-09-11T07:12:44.857Z,60
2022-09-11T07:13:48.128Z,63
2022-09-11T07:15:54.108Z,70
2022-09-11T07:18:00.649Z,83
2022-09-11T07:20:07.069Z,89
2022-09-11T07:21:10.455Z,93
2022-09-11T07:23:16.854Z,94
2022-09-11T07:25:22.873Z,88
2022-09-11T07:26:25.746Z,91
2022-09-11T07:27:28.849Z,90
2022-09-11T07:28:32.868Z,87
2022-09-11T07:30:38.770Z,120
2022-09-11T07:32:45.727Z,164
2022-09-11T07:33:48.848Z,184
2022-09-11T07:34:51.676Z,140
2022-09-11T07:35:54.475Z,121
2022-09-11T07:38:00.673Z,92
2022-09-11T07:39:04.111Z,105
2022-09-11T07:40:07.661Z,104
2022-09-11T07:41:10.243Z,117
2022-09-11T07:43:15.567Z,143
2022-09-11T07:44:19.042Z,149
2022-09-11T07:45:24.861Z,151
2022-09-11T07:46:27.740Z,177
2022-09-11T07:48:35.411Z,417
2022-09-11T07:50:41.129Z,277
2022-09-11T07:51:44.281Z,240
2022-09-11T07:53:49.952Z,144
2022-09-11T07:55:56.165Z,111
2022-09-11T07:58:02.489Z,60
2022-09-11T07:59:05.647Z,74
2022-09-11T08:01:11.599Z,96
2022-09-11T08:03:17.889Z,78
2022-09-11T08:05:24.797Z,118
2022-09-11T08:06:27.953Z,426
2022-09-11T08:08:34.184Z,142
2022-09-11T08:10:39.587Z,113
2022-09-11T08:12:45.749Z,104
2022-09-11T08:13:49.097Z,114
2022-09-11T08:15:54.863Z,185
2022-09-11T08:18:00.172Z,227
2022-09-11T08:19:03.653Z,217
2022-09-11T08:20:07.461Z,201
2022-09-11T08:21:14.690Z,202
2022-09-11T08:23:21.295Z,275
2022-09-11T08:25:28.747Z,96
2022-09-11T08:26:31.815Z,85
2022-09-11T08:28:38.397Z,95
2022-09-11T08:30:44.443Z,106
2022-09-11T08:32:50.945Z,403
2022-09-11T08:33:54.209Z,222
2022-09-11T08:36:01.311Z,150
2022-09-11T08:38:07.614Z,129
2022-09-11T08:40:14.436Z,150
2022-09-11T08:41:17.626Z,341
2022-09-11T08:43:23.862Z,872
2022-09-11T08:44:26.579Z,754
2022-09-11T08:46:32.435Z,912
2022-09-11T08:48:38.899Z,962
2022-09-11T08:49:42.339Z,995
2022-09-11T08:51:48.940Z,1020
2022-09-11T08:53:54.603Z,950
2022-09-11T08:56:01.405Z,1000
2022-09-11T08:57:04.185Z,1022
2022-09-11T08:59:09.880Z,1010
2022-09-11T09:01:16.465Z,1016
2022-09-11T09:02:19.302Z,1013
2022-09-11T09:04:26.182Z,1014
2022-09-11T09:05:29.045Z,1061
2022-09-11T09:07:35.219Z,537
2022-09-11T09:09:39.697Z,774
2022-09-11T09:10:42.560Z,401
2022-09-11T09:12:48.691Z,670
2022-09-11T09:13:52.426Z,427
2022-09-11T09:15:58.666Z,365
2022-09-11T09:18:04.203Z,1094
2022-09-11T09:19:07.357Z,812
2022-09-11T09:21:13.219Z,401
2022-09-11T09:22:16.346Z,831
2022-09-11T09:24:23.631Z,400
2022-09-11T09:26:30.335Z,300
2022-09-11T09:27:33.500Z,272
2022-09-11T09:29:39.284Z,209
2022-09-11T09:31:45.066Z,166
2022-09-11T09:32:47.784Z,153
2022-09-11T09:34:53.433Z,157
2022-09-11T09:37:00.025Z,115
2022-09-11T09:38:02.665Z,103
2022-09-11T09:40:10.198Z,96
2022-09-11T09:42:16.048Z,112
2022-09-11T09:43:19.118Z,119
2022-09-11T09:45:25.804Z,111
2022-09-11T09:46:28.895Z,102
2022-09-11T09:47:32.913Z,92
2022-09-11T09:48:35.771Z,84
2022-09-11T09:50:41.463Z,77
2022-09-11T09:51:44.354Z,87
2022-09-11T09:53:50.634Z,127
2022-09-11T09:55:58.133Z,180
2022-09-11T09:57:01.297Z,248
2022-09-11T09:58:03.724Z,468
2022-09-11T09:59:06.599Z,225
2022-09-11T10:00:10.032Z,206
2022-09-11T10:01:19.779Z,203
2022-09-11T10:02:24.174Z,180
2022-09-11T10:04:31.106Z,115
2022-09-11T10:05:34.445Z,94
2022-09-11T10:06:37.513Z,84
2022-09-11T10:07:40.960Z,78
2022-09-11T10:09:48.479Z,83
2022-09-11T10:10:52.537Z,97
2022-09-11T10:13:21.201Z,128
2022-09-11T10:14:53.873Z,145
2022-09-11T10:15:57.823Z,151
2022-09-11T10:18:02.911Z,157
2022-09-11T10:20:09.478Z,158
2022-09-11T10:21:12.388Z,160
2022-09-11T10:23:18.729Z,159
2022-09-11T10:25:24.860Z,159
2022-09-11T10:26:28.695Z,149
2022-09-11T10:28:35.231Z,139
2022-09-11T10:30:41.181Z,138
2022-09-11T10:31:44.608Z,139
2022-09-11T10:32:47.794Z,146
2022-09-11T10:33:50.587Z,154
2022-09-11T10:35:55.547Z,177
2022-09-11T10:36:58.057Z,190
2022-09-11T10:39:04.486Z,218
2022-09-11T10:41:11.083Z,218
2022-09-11T10:42:15.191Z,225
2022-09-11T10:44:22.262Z,248
2022-09-11T10:46:28.226Z,387
2022-09-11T10:48:33.509Z,357
2022-09-11T10:49:36.224Z,264
2022-09-11T10:51:49.213Z,224
2022-09-11T10:52:52.554Z,231
2022-09-11T10:53:56.014Z,261
2022-09-11T10:54:59.380Z,311
2022-09-11T10:57:05.431Z,202
2022-09-11T10:58:08.706Z,187
2022-09-11T11:00:15.928Z,178
2022-09-11T11:02:23.266Z,188
2022-09-11T11:04:29.984Z,183
2022-09-11T11:05:33.005Z,158
2022-09-11T11:07:38.888Z,123
2022-09-11T11:08:41.970Z,119
2022-09-11T11:10:47.762Z,144
2022-09-11T11:12:55.033Z,190
2022-09-11T11:13:58.827Z,202
2022-09-11T11:16:05.404Z,212
2022-09-11T11:17:08.490Z,209
2022-09-11T11:19:13.742Z,227
2022-09-11T11:21:19.862Z,255
2022-09-11T11:22:22.460Z,272
2022-09-11T11:24:28.144Z,293
2022-09-11T11:25:30.930Z,301
2022-09-11T11:27:37.249Z,503
2022-09-11T11:29:44.444Z,316
2022-09-11T11:30:48.090Z,250
2022-09-11T11:32:54.715Z,248
2022-09-11T11:33:58.062Z,581
2022-09-11T11:36:04.372Z,252
2022-09-11T11:38:10.979Z,290
2022-09-11T11:39:14.052Z,328
2022-09-11T11:41:19.691Z,320
2022-09-11T11:42:22.292Z,321
2022-09-11T11:44:28.406Z,325
2022-09-11T11:46:35.214Z,295
2022-09-11T11:47:38.277Z,298
2022-09-11T11:49:44.260Z,275
2022-09-11T11:50:47.430Z,283
2022-09-11T11:51:50.576Z,291
2022-09-11T11:52:53.728Z,273
2022-09-11T11:54:59.667Z,259
2022-09-11T11:56:02.657Z,243
2022-09-11T11:58:08.302Z,222
2022-09-11T12:00:15.588Z,205
2022-09-11T12:01:19.387Z,178
2022-09-11T12:02:22.522Z,166
2022-09-11T12:03:26.129Z,156
2022-09-11T12:04:29.236Z,146
2022-09-11T12:05:32.683Z,135
2022-09-11T12:06:35.841Z,124
2022-09-11T12:08:42.585Z,108
2022-09-11T12:09:46.155Z,103
2022-09-11T12:11:51.472Z,107
2022-09-11T12:13:57.063Z,112
2022-09-11T12:15:00.153Z,113
2022-09-11T12:17:07.329Z,109
2022-09-11T12:19:12.911Z,120
2022-09-11T12:21:19.166Z,142
2022-09-11T12:22:21.992Z,146
2022-09-11T12:24:27.573Z,153
2022-09-11T12:26:33.904Z,147
2022-09-11T12:27:37.238Z,142
2022-09-11T12:29:43.198Z,132
2022-09-11T12:30:46.105Z,122
2022-09-11T12:32:53.138Z,102
2022-09-11T12:34:59.017Z,96
2022-09-11T12:36:01.289Z,95
2022-09-11T12:38:07.213Z,95
2022-09-11T12:39:10.859Z,93
2022-09-11T12:41:16.775Z,84
2022-09-11T12:43:22.282Z,75
2022-09-11T12:44:25.157Z,72
2022-09-11T12:46:31.370Z,69
2022-09-11T12:48:38.789Z,69
2022-09-11T12:49:42.253Z,71
2022-09-11T12:51:48.269Z,77
2022-09-11T12:53:54.125Z,88
2022-09-11T12:54:57.195Z,98
2022-09-11T12:57:03.226Z,121
2022-09-11T12:59:08.260Z,138
2022-09-11T13:00:11.328Z,140
2022-09-11T13:02:16.943Z,137
2022-09-11T13:03:21.021Z,134
2022-09-11T13:04:25.088Z,131
2022-09-11T13:05:28.173Z,129
2022-09-11T13:07:34.132Z,135
2022-09-11T13:08:37.229Z,141
2022-09-11T13:10:43.792Z,157
2022-09-11T13:12:50.369Z,174
2022-09-11T13:13:52.806Z,184
2022-09-11T13:15:59.306Z,188
2022-09-11T13:18:05.494Z,191
2022-09-11T13:19:08.350Z,196
2022-09-11T13:21:15.731Z,213
2022-09-11T13:23:21.488Z,218
2022-09-11T13:24:24.642Z,228
2022-09-11T13:26:31.166Z,265
2022-09-11T13:28:36.554Z,373
2022-09-11T13:30:42.792Z,230
2022-09-11T13:31:45.869Z,243
2022-09-11T13:33:51.923Z,249
2022-09-11T13:35:58.959Z,236
2022-09-11T13:37:02.340Z,240
2022-09-11T13:39:09.070Z,206
2022-09-11T13:41:16.001Z,238
2022-09-11T13:43:22.295Z,252
2022-09-11T13:44:25.482Z,255
2022-09-11T13:46:31.484Z,224
2022-09-11T13:48:37.969Z,187
2022-09-11T13:49:40.755Z,161
2022-09-11T13:51:47.951Z,136
2022-09-11T13:53:53.347Z,129
2022-09-11T13:54:56.717Z,127
2022-09-11T13:57:02.645Z,149
2022-09-11T13:59:07.889Z,148
2022-09-11T14:01:14.116Z,131
2022-09-11T14:02:17.186Z,124
2022-09-11T14:04:23.498Z,112
2022-09-11T14:06:29.666Z,104
2022-09-11T14:07:33.467Z,101
2022-09-11T14:09:40.049Z,120
2022-09-11T14:11:46.007Z,106
2022-09-11T14:12:49.431Z,98
2022-09-11T14:14:55.563Z,91
2022-09-11T14:15:59.320Z,86
2022-09-11T14:18:05.036Z,72
2022-09-11T14:19:07.838Z,64
2022-09-11T14:21:14.704Z,50
2022-09-11T14:23:22.200Z,39
2022-09-11T14:24:25.614Z,34
2022-09-11T14:25:28.879Z,32
2022-09-11T14:26:31.485Z,29
2022-09-11T14:28:37.959Z,26
2022-09-11T14:29:41.132Z,27
2022-09-11T14:31:46.826Z,28
2022-09-11T14:33:54.241Z,31
2022-09-11T14:34:57.621Z,33
2022-09-11T14:36:07.568Z,36
2022-09-11T14:37:11.292Z,40
2022-09-11T14:39:18.667Z,50
2022-09-11T14:41:25.643Z,57
2022-09-11T14:42:27.243Z,58
2022-09-11T14:44:34.067Z,60
2022-09-11T14:46:40.109Z,63
2022-09-11T14:47:42.919Z,65
2022-09-11T14:48:46.012Z,68
2022-09-11T14:49:49.432Z,71
2022-09-11T14:51:54.852Z,73
2022-09-11T14:52:58.223Z,71
2022-09-11T14:54:02.003Z,73
2022-09-11T14:55:05.809Z,71
2022-09-11T14:57:12.128Z,65
2022-09-11T14:58:14.952Z,61
2022-09-11T14:59:17.471Z,57
2022-09-11T15:00:20.548Z,52
2022-09-11T15:02:26.879Z,48
2022-09-11T15:03:30.051Z,48
2022-09-11T15:04:33.226Z,48
2022-09-11T15:05:36.642Z,50
2022-09-11T15:07:42.388Z,59
2022-09-11T15:08:46.117Z,65
2022-09-11T15:09:49.547Z,71
2022-09-11T15:10:53.345Z,76
2022-09-11T15:12:59.741Z,88
2022-09-11T15:15:00.727Z,92
2022-09-11T15:16:04.682Z,105
2022-09-11T15:18:11.585Z,111
2022-09-11T15:20:17.095Z,100
2022-09-11T15:21:20.220Z,93
2022-09-11T15:23:26.399Z,88
2022-09-11T15:25:33.277Z,88
2022-09-11T15:27:40.217Z,86
2022-09-11T15:28:43.488Z,83
2022-09-11T15:30:50.289Z,82
2022-09-11T15:32:56.510Z,82
2022-09-11T15:35:02.804Z,83
2022-09-11T15:36:05.696Z,82
2022-09-11T15:38:10.937Z,77
2022-09-11T15:40:17.605Z,72
2022-09-11T15:41:21.089Z,71
2022-09-11T15:42:25.174Z,70
2022-09-11T15:43:27.874Z,68
2022-09-11T15:45:34.299Z,66
2022-09-11T15:46:37.664Z,67
2022-09-11T15:47:41.041Z,66
2022-09-11T15:48:43.546Z,66
2022-09-11T15:50:49.164Z,61
2022-09-11T15:51:52.329Z,57
2022-09-11T15:52:55.675Z,55
2022-09-11T15:53:58.822Z,56
2022-09-11T15:56:04.779Z,58
2022-09-11T15:57:08.566Z,58
2022-09-11T15:58:12.654Z,56
2022-09-11T15:59:16.345Z,54
2022-09-11T16:01:23.168Z,51
2022-09-11T16:03:29.922Z,50
2022-09-11T16:04:33.669Z,51
2022-09-11T16:06:41.080Z,58
2022-09-11T16:08:46.813Z,70
2022-09-11T16:10:51.829Z,69
2022-09-11T16:11:54.641Z,67
2022-09-11T16:14:04.645Z,58
2022-09-11T16:16:12.591Z,53
2022-09-11T16:18:18.418Z,53
2022-09-11T16:19:21.513Z,53
2022-09-11T16:21:27.865Z,53
2022-09-11T16:23:34.501Z,53
2022-09-11T16:25:40.918Z,60
2022-09-11T16:26:44.401Z,63
2022-09-11T16:28:50.982Z,56
2022-09-11T16:30:52.131Z,52
2022-09-11T16:31:55.419Z,43
2022-09-11T16:34:01.912Z,32
2022-09-11T16:36:08.155Z,28
2022-09-11T16:38:14.483Z,26
2022-09-11T16:39:17.003Z,25
2022-09-11T16:41:23.199Z,23
2022-09-11T16:43:29.891Z,25
2022-09-11T16:45:36.809Z,26
2022-09-11T16:46:39.920Z,27
2022-09-11T16:48:58.793Z,31
2022-09-11T16:50:10.712Z,29
2022-09-11T16:51:14.015Z,27
2022-09-11T16:53:19.307Z,25
2022-09-11T16:55:24.879Z,26
2022-09-11T16:56:28.095Z,24
2022-09-11T16:58:34.364Z,22
2022-09-11T17:00:42.200Z,22
2022-09-11T17:02:48.383Z,22
2022-09-11T17:03:51.180Z,21
2022-09-11T17:05:57.311Z,18
2022-09-11T17:08:03.269Z,16
2022-09-11T17:10:09.645Z,15
2022-09-11T17:11:12.642Z,15
2022-09-11T17:13:17.478Z,14
2022-09-11T17:15:23.583Z,13
2022-09-11T17:17:29.579Z,12
2022-09-11T17:18:32.986Z,11
2022-09-11T17:20:38.479Z,10
2022-09-11T17:22:44.159Z,9
2022-09-11T17:23:46.764Z,9
2022-09-11T17:24:49.638Z,8
2022-09-11T17:25:52.625Z,8
2022-09-11T17:27:59.151Z,7
2022-09-11T17:29:02.573Z,7
2022-09-11T17:30:05.918Z,6
2022-09-11T17:31:09.544Z,6
2022-09-11T17:32:31.332Z,5
2022-09-11T17:33:34.117Z,5
2022-09-11T17:34:37.211Z,4
2022-09-11T17:35:40.935Z,4
2022-09-11T17:36:43.723Z,4
2022-09-11T17:38:49.232Z,3
2022-09-11T17:39:52.151Z,3
2022-09-11T17:40:55.224Z,3
2022-09-11T17:41:58.580Z,2
2022-09-11T17:44:04.880Z,2
2022-09-11T17:45:07.390Z,1
2022-09-11T17:46:10.509Z,1
2022-09-11T17:47:13.941Z,1
2022-09-11T17:49:21.227Z,1
2022-09-11T17:50:24.103Z,1
2022-09-11T17:51:27.462Z,0
2022-09-11T17:52:29.696Z,0
2022-09-11T17:53:39.636Z,0
2022-09-11T17:54:42.236Z,0
2022-09-11T17:56:47.712Z,0
2022-09-11T17:57:50.707Z,0
2022-09-11T17:59:56.475Z,0
2022-09-11T18:02:03.264Z,0
2022-09-11T18:04:10.286Z,0
2022-09-11T18:05:12.505Z,0
2022-09-11T18:07:18.365Z,0
2022-09-11T18:09:24.169Z,0
2022-09-11T18:11:30.415Z,0
2022-09-11T18:12:33.835Z,0
2022-09-11T18:14:39.661Z,0
2022-09-11T18:16:45.032Z,0
2022-09-11T18:18:51.141Z,0
2022-09-11T18:19:55.691Z,0
2022-09-11T18:22:01.983Z,0
2022-09-11T18:24:09.759Z,0
2022-09-11T18:26:16.727Z,0
2022-09-11T18:27:21.469Z,0
2022-09-11T18:29:29.957Z,0
2022-09-11T18:31:36.949Z,0
2022-09-11T18:33:46.174Z,0
2022-09-11T18:34:49.961Z,0
2022-09-11T18:35:54.033Z,0
2022-09-11T18:36:56.885Z,0
2022-09-11T18:39:04.863Z,0
2022-09-11T18:41:11.196Z,0
2022-09-11T18:42:14.665Z,0
2022-09-11T18:44:21.965Z,0
2022-09-11T18:46:28.631Z,0
2022-09-11T18:48:35.870Z,0
2022-09-11T18:49:38.398Z,0
2022-09-11T18:51:45.991Z,0
2022-09-11T18:53:51.770Z,0
2022-09-11T18:55:58.026Z,0
2022-09-11T18:57:02.385Z,0
2022-09-11T18:59:08.958Z,0
2022-09-11T19:01:15.863Z,0
2022-09-11T19:03:23.831Z,0
2022-09-11T19:04:26.370Z,0
2022-09-11T19:05:28.613Z,0
2022-09-11T19:06:31.731Z,0
2022-09-11T19:08:38.805Z,0
2022-09-11T19:10:51.036Z,0
2022-09-11T19:11:54.104Z,0
2022-09-11T19:14:02.055Z,0
2022-09-11T19:16:08.991Z,0
2022-09-11T19:18:14.670Z,0
2022-09-11T19:19:18.017Z,0
2022-09-11T19:21:24.451Z,0
2022-09-11T19:23:31.994Z,0
2022-09-11T19:25:37.570Z,0
2022-09-11T19:26:40.682Z,0
2022-09-11T19:28:47.497Z,0
2022-09-11T19:30:54.575Z,0
2022-09-11T19:33:02.113Z,0
2022-09-11T19:34:04.990Z,0
2022-09-11T19:36:10.491Z,0
2022-09-11T19:38:17.045Z,0
2022-09-11T19:40:24.000Z,0
2022-09-11T19:41:26.865Z,0
2022-09-11T19:43:33.182Z,0
2022-09-11T19:45:40.065Z,0
2022-09-11T19:47:47.191Z,0
2022-09-11T19:48:50.459Z,0
2022-09-11T19:50:56.733Z,0
2022-09-11T19:53:04.270Z,0
2022-09-11T19:55:11.141Z,0
2022-09-11T19:56:14.204Z,0
2022-09-11T19:58:26.120Z,0
2022-09-11T19:59:29.588Z,0
2022-09-11T20:00:33.519Z,0
2022-09-11T20:02:40.122Z,0
2022-09-11T20:03:43.511Z,0
2022-09-11T20:05:49.637Z,0
2022-09-11T20:07:54.574Z,0
2022-09-11T20:09:34.138Z,0
2022-09-11T20:10:37.557Z,0
2022-09-11T20:12:43.326Z,0
2022-09-11T20:13:47.060Z,0
2022-09-11T20:14:50.236Z,0
2022-09-11T20:15:53.900Z,0
2022-09-11T20:18:01.326Z,0
2022-09-11T20:20:08.354Z,0
2022-09-11T20:21:12.050Z,0
2022-09-11T20:23:18.982Z,0
2022-09-11T20:25:24.973Z,0
2022-09-11T20:27:33.103Z,0
2022-09-11T20:28:35.903Z,0
2022-09-11T20:30:41.878Z,0
2022-09-11T20:31:52.250Z,0
2022-09-11T20:32:54.786Z,0
2022-09-11T20:33:58.236Z,0
2022-09-11T20:36:05.501Z,0
2022-09-11T20:38:14.870Z,0
2022-09-11T20:40:21.316Z,0
2022-09-11T20:41:24.702Z,0
2022-09-11T20:43:31.927Z,0
2022-09-11T20:45:42.517Z,0
2022-09-11T20:47:48.537Z,0
2022-09-11T20:48:51.253Z,0
2022-09-11T20:49:53.766Z,0
2022-09-11T20:50:56.560Z,0
2022-09-11T20:53:04.802Z,0
2022-09-11T20:54:07.694Z,0
2022-09-11T20:55:10.963Z,0
2022-09-11T20:56:14.129Z,0
2022-09-11T20:58:21.201Z,0
2022-09-11T20:59:24.288Z,0
2022-09-11T21:00:27.278Z,0
2022-09-11T21:01:30.357Z,0
2022-09-11T21:03:36.608Z,0
2022-09-11T21:05:42.748Z,0
2022-09-11T21:06:45.893Z,0
2022-09-11T21:08:51.357Z,0
2022-09-11T21:10:57.435Z,0
2022-09-11T21:13:03.516Z,0
2022-09-11T21:14:07.332Z,0
2022-09-11T21:16:13.940Z,0
2022-09-11T21:18:20.650Z,0
2022-09-11T21:20:26.983Z,0
2022-09-11T21:21:29.230Z,0
2022-09-11T21:23:35.086Z,0
2022-09-11T21:25:40.612Z,0
2022-09-11T21:27:45.899Z,0
2022-09-11T21:28:49.657Z,0
2022-09-11T21:30:56.873Z,0
2022-09-11T21:33:03.183Z,0
2022-09-11T21:35:09.617Z,0
2022-09-11T21:36:13.275Z,0
2022-09-11T21:38:19.324Z,0
2022-09-11T21:40:24.632Z,0
2022-09-11T21:42:30.933Z,0
2022-09-11T21:43:33.794Z,0
2022-09-11T21:45:40.149Z,0
2022-09-11T21:47:46.036Z,0
2022-09-11T21:49:52.601Z,0
2022-09-11T21:50:55.741Z,0
2022-09-11T21:53:00.213Z,0
2022-09-11T21:55:07.344Z,0
2022-09-11T21:56:09.503Z,0
2022-09-11T21:58:15.724Z,0
2022-09-11T22:00:21.923Z,0
2022-09-11T22:01:40.565Z,0
2022-09-11T22:02:43.293Z,0
2022-09-11T22:05:04.020Z,0
2022-09-11T22:06:07.314Z,0
2022-09-11T22:07:10.988Z,0
2022-09-11T22:08:15.023Z,0
2022-09-11T22:10:20.812Z,0
2022-09-11T22:11:39.669Z,0
2022-09-11T22:12:43.002Z,0
2022-09-11T22:14:50.665Z,0
2022-09-11T22:15:54.534Z,0
2022-09-11T22:18:01.704Z,0
2022-09-11T22:19:19.668Z,0
2022-09-11T22:20:23.131Z,0
2022-09-11T22:22:28.944Z,0
2022-09-11T22:24:35.657Z,0
2022-09-11T22:25:38.427Z,0
2022-09-11T22:27:59.304Z,0
2022-09-11T22:30:05.074Z,0
2022-09-11T22:31:23.374Z,0
2022-09-11T22:34:49.930Z,0
2022-09-11T22:35:54.420Z,0
2022-09-11T22:38:15.914Z,0
2022-09-11T22:39:19.474Z,0
2022-09-11T22:40:22.356Z,0
2022-09-11T22:41:25.174Z,0
2022-09-11T22:42:28.854Z,0
2022-09-11T22:43:31.180Z,0
2022-09-11T22:45:37.596Z,0
2022-09-11T22:46:55.402Z,0
2022-09-11T22:47:58.779Z,0
2022-09-11T22:50:04.734Z,0
2022-09-11T22:51:08.425Z,0
2022-09-11T22:53:14.236Z,0
2022-09-11T22:55:20.659Z,0
2022-09-11T22:57:31.028Z,0
2022-09-11T22:58:33.806Z,0
2022-09-11T22:59:36.661Z,0
2022-09-11T23:00:39.796Z,0
2022-09-11T23:02:46.144Z,0
2022-09-11T23:04:55.644Z,0
2022-09-11T23:05:58.228Z,0
2022-09-11T23:07:02.596Z,0
2022-09-11T23:08:05.400Z,0
2022-09-11T23:10:11.967Z,0
2022-09-11T23:12:18.150Z,0
2022-09-11T23:13:21.172Z,0
2022-09-11T23:15:26.735Z,0
2022-09-11T23:17:34.203Z,0
2022-09-11T23:19:41.138Z,0
2022-09-11T23:20:44.447Z,0
2022-09-11T23:22:51.010Z,0
2022-09-11T23:24:59.338Z,0
2022-09-11T23:27:05.345Z,0
2022-09-11T23:28:08.131Z,0
2022-09-11T23:30:13.429Z,0
2022-09-11T23:32:19.771Z,0
2022-09-11T23:34:25.674Z,0
2022-09-11T23:35:29.438Z,0
2022-09-11T23:37:35.912Z,0
2022-09-11T23:39:41.448Z,0
2022-09-11T23:41:47.788Z,0
2022-09-11T23:42:50.298Z,0
2022-09-11T23:44:56.684Z,0